Detall de PIREP

Printer-friendly versionPDF version

[2013/12/22 08:31:00]
Flight IATA:CT1004
Pilot Number:026
Company ICAO:CAT
Aircraft Type:DC85/A
PAX:132
Aircraft Registration:PAX
Departing Airport: LEBL
Destination Airport: LOWI
Alternate Airport:EDDM
Online: VATSIM
Route:AGENA UM985 SUMIR UM726 BRENO
Flight Level:F380
No Slew and time accel
No pause
Crash detect
Detect pilot in Cockpit between each 30 and 45 minutes
08:31 Zero fuel Weight: 178707 Lbs, Fuel Weight: 36007 Lbs
08:31 VATSIM:LEBL 220800Z 32009KT CAVOK 04/00 Q1031 NOSIG
08:31 VATSIM:LOWI 220750Z 28006KT 220V330 9999 BKN110 02/M00 Q1027 R08/19//62 NOSIG
08:31 VOICE CATALONIAN / X-MAS CHARTER
08:38 Parking Brakes off
08:45 Take-off
08:45 Take off Weight: 213645 Lbs
08:45 Wind: 322º @ 008 Knots Heading: 063º
08:45 POS N41º 17´ 20´´ E002º 05´ 37´´
08:45 Gear Up: 169 Knots
08:45 Flaps:2 at 169 Knots
08:46 Flaps:1 at 223 Knots
08:46 Flaps:0 at 202 Knots
08:49 Gear Down: 223 Knots
08:49 Gear Up: 223 Knots
09:00 Wind:336º@003 Knots Heading: 113º Ground Speed: 357 Knots Altitude 33323 ft
09:06 TOC
09:06 Fuel Weight: 29245 Lb
09:15 Wind:359º@027 Knots Heading: 031º Ground Speed: 451 Knots Altitude 38526 ft
09:30 Wind:329º@026 Knots Heading: 056º Ground Speed: 457 Knots Altitude 38559 ft
09:45 Wind:023º@030 Knots Heading: 027º Ground Speed: 447 Knots Altitude 38464 ft
09:45 TOD
09:45 Fuel Weight: 21990 Lb
09:45 TOC
09:45 Fuel Weight: 21884 Lb
09:56 TOD
09:56 Fuel Weight: 19862 Lb
10:00 Wind:208º@022 Knots Heading: 056º Ground Speed: 472 Knots Altitude 33786 ft
10:15 Wind:236º@007 Knots Heading: 058º Ground Speed: 303 Knots Altitude 11811 ft
10:25 Flaps:1 at 161 Knots
10:27 Flaps:2 at 214 Knots
10:28 Flaps:3 at 203 Knots
10:29 Gear Down: 190 Knots
10:29 Flaps:4 at 166 Knots
10:30 Wind:224º@004 Knots Heading: 247º Ground Speed: 161 Knots Altitude 3234 ft
10:31 Flaps:5 at 134 Knots
10:31 TouchDown:Rate -557 ft/min Speed: 120 Knots
10:32 VATSIM:LOWI 221020Z 28007KT 240V310 9999 FEW100 BKN300 04/00 Q1026 R08/19//62 NOSIG
10:32 Land
10:32 Wind:213º@004 Knots
10:32 Heading: 261º
10:32 Flight Duration: 01:47
10:32 Landing Weight: 194864 Lbs
10:32 POS N47º 15´ 34´´ E011º 20´ 16´´
10:37 Parking brakes on
10:37 Block to Block Duration: 01:59
10:37 Final Fuel: 15731 Lbls
10:37 Spent Fuel: 20275 Lbls
10:37 Flight Length: 621 NM
10:37 TOD Land Length: 137 NM

Exportar CSV

Powered by Drupal - Modified by Danger4k